sensor_id;sensor_type;location;lat;lon;timestamp;temperature;humidity
11597;DHT22;5854;48.072;16.286;2023-07-20T00:00:27;26.80;39.70
11597;DHT22;5854;48.072;16.286;2023-07-20T00:03:10;26.70;38.30
11597;DHT22;5854;48.072;16.286;2023-07-20T00:05:38;26.80;37.90
11597;DHT22;5854;48.072;16.286;2023-07-20T00:08:05;26.70;37.50
11597;DHT22;5854;48.072;16.286;2023-07-20T00:10:34;26.70;39.10
11597;DHT22;5854;48.072;16.286;2023-07-20T00:13:01;26.70;39.70
11597;DHT22;5854;48.072;16.286;2023-07-20T00:15:28;26.60;38.30
11597;DHT22;5854;48.072;16.286;2023-07-20T00:17:55;26.50;38.80
11597;DHT22;5854;48.072;16.286;2023-07-20T00:20:23;26.60;39.80
11597;DHT22;5854;48.072;16.286;2023-07-20T00:22:51;26.70;38.50
11597;DHT22;5854;48.072;16.286;2023-07-20T00:25:20;26.60;37.90
11597;DHT22;5854;48.072;16.286;2023-07-20T00:27:49;26.60;40.20
11597;DHT22;5854;48.072;16.286;2023-07-20T00:30:16;26.60;38.50
11597;DHT22;5854;48.072;16.286;2023-07-20T00:32:44;26.70;38.20
11597;DHT22;5854;48.072;16.286;2023-07-20T00:35:11;26.70;39.10
11597;DHT22;5854;48.072;16.286;2023-07-20T00:37:39;26.50;38.40
11597;DHT22;5854;48.072;16.286;2023-07-20T00:40:07;26.30;39.60
11597;DHT22;5854;48.072;16.286;2023-07-20T00:42:34;26.40;40.20
11597;DHT22;5854;48.072;16.286;2023-07-20T00:45:03;26.40;39.70
11597;DHT22;5854;48.072;16.286;2023-07-20T00:47:31;26.30;39.60
11597;DHT22;5854;48.072;16.286;2023-07-20T00:49:58;26.40;40.20
11597;DHT22;5854;48.072;16.286;2023-07-20T00:52:26;26.50;39.40
11597;DHT22;5854;48.072;16.286;2023-07-20T00:54:54;26.30;40.10
11597;DHT22;5854;48.072;16.286;2023-07-20T00:57:23;26.50;40.20
11597;DHT22;5854;48.072;16.286;2023-07-20T00:59:50;26.30;39.20
11597;DHT22;5854;48.072;16.286;2023-07-20T01:02:19;26.20;40.50
11597;DHT22;5854;48.072;16.286;2023-07-20T01:04:46;26.20;41.30
11597;DHT22;5854;48.072;16.286;2023-07-20T01:07:19;26.10;39.70
11597;DHT22;5854;48.072;16.286;2023-07-20T01:09:57;26.30;40.20
11597;DHT22;5854;48.072;16.286;2023-07-20T01:12:38;26.30;39.80
11597;DHT22;5854;48.072;16.286;2023-07-20T01:15:08;26.20;39.50
11597;DHT22;5854;48.072;16.286;2023-07-20T01:17:37;26.10;40.50
11597;DHT22;5854;48.072;16.286;2023-07-20T01:20:05;26.00;40.20
11597;DHT22;5854;48.072;16.286;2023-07-20T01:22:59;26.00;40.70
11597;DHT22;5854;48.072;16.286;2023-07-20T01:25:43;26.00;40.90
11597;DHT22;5854;48.072;16.286;2023-07-20T01:28:41;26.10;39.60
11597;DHT22;5854;48.072;16.286;2023-07-20T01:31:22;26.20;39.70
11597;DHT22;5854;48.072;16.286;2023-07-20T01:33:53;26.20;39.50
11597;DHT22;5854;48.072;16.286;2023-07-20T01:36:24;26.20;40.00
11597;DHT22;5854;48.072;16.286;2023-07-20T01:38:52;26.10;40.70
11597;DHT22;5854;48.072;16.286;2023-07-20T01:41:20;25.90;40.00
11597;DHT22;5854;48.072;16.286;2023-07-20T01:43:48;25.90;39.60
11597;DHT22;5854;48.072;16.286;2023-07-20T01:46:15;25.80;40.70
11597;DHT22;5854;48.072;16.286;2023-07-20T01:48:43;25.90;40.70
11597;DHT22;5854;48.072;16.286;2023-07-20T01:51:10;26.00;39.90
11597;DHT22;5854;48.072;16.286;2023-07-20T01:53:37;26.00;40.90
11597;DHT22;5854;48.072;16.286;2023-07-20T01:56:04;26.10;39.90
11597;DHT22;5854;48.072;16.286;2023-07-20T01:58:31;26.00;39.90
11597;DHT22;5854;48.072;16.286;2023-07-20T02:00:58;25.60;40.70
11597;DHT22;5854;48.072;16.286;2023-07-20T02:03:26;25.60;41.10
11597;DHT22;5854;48.072;16.286;2023-07-20T02:05:55;25.60;41.10
11597;DHT22;5854;48.072;16.286;2023-07-20T02:08:23;25.50;41.00
11597;DHT22;5854;48.072;16.286;2023-07-20T02:10:50;25.50;41.40
11597;DHT22;5854;48.072;16.286;2023-07-20T02:13:17;25.30;41.90
11597;DHT22;5854;48.072;16.286;2023-07-20T02:15:44;25.50;41.80
11597;DHT22;5854;48.072;16.286;2023-07-20T02:18:12;25.70;41.10
11597;DHT22;5854;48.072;16.286;2023-07-20T02:20:40;25.60;40.90
11597;DHT22;5854;48.072;16.286;2023-07-20T02:23:09;25.40;41.60
11597;DHT22;5854;48.072;16.286;2023-07-20T02:25:37;25.50;41.70
11597;DHT22;5854;48.072;16.286;2023-07-20T02:28:04;25.50;41.10
11597;DHT22;5854;48.072;16.286;2023-07-20T02:30:31;25.30;41.20
11597;DHT22;5854;48.072;16.286;2023-07-20T02:32:58;25.40;41.70
11597;DHT22;5854;48.072;16.286;2023-07-20T02:35:25;25.40;40.70
11597;DHT22;5854;48.072;16.286;2023-07-20T02:37:52;25.50;41.20
11597;DHT22;5854;48.072;16.286;2023-07-20T02:40:21;25.50;42.00
11597;DHT22;5854;48.072;16.286;2023-07-20T02:42:48;25.50;41.10
11597;DHT22;5854;48.072;16.286;2023-07-20T02:45:16;25.50;40.70
11597;DHT22;5854;48.072;16.286;2023-07-20T02:47:44;25.50;40.60
11597;DHT22;5854;48.072;16.286;2023-07-20T02:50:11;25.50;40.50
11597;DHT22;5854;48.072;16.286;2023-07-20T02:52:39;25.50;40.40
11597;DHT22;5854;48.072;16.286;2023-07-20T02:55:07;25.50;40.90
11597;DHT22;5854;48.072;16.286;2023-07-20T02:57:36;25.40;39.90
11597;DHT22;5854;48.072;16.286;2023-07-20T03:00:04;25.50;40.90
11597;DHT22;5854;48.072;16.286;2023-07-20T03:02:32;25.50;40.80
11597;DHT22;5854;48.072;16.286;2023-07-20T03:04:59;25.30;41.10
11597;DHT22;5854;48.072;16.286;2023-07-20T03:07:28;25.40;40.60
11597;DHT22;5854;48.072;16.286;2023-07-20T03:09:55;25.40;40.80
11597;DHT22;5854;48.072;16.286;2023-07-20T03:12:22;25.30;40.60
11597;DHT22;5854;48.072;16.286;2023-07-20T03:14:51;25.30;41.00
11597;DHT22;5854;48.072;16.286;2023-07-20T03:17:18;25.40;40.90
11597;DHT22;5854;48.072;16.286;2023-07-20T03:19:46;25.50;39.80
11597;DHT22;5854;48.072;16.286;2023-07-20T03:22:13;25.40;39.80
11597;DHT22;5854;48.072;16.286;2023-07-20T03:24:40;25.30;40.40
11597;DHT22;5854;48.072;16.286;2023-07-20T03:27:07;25.20;40.70
11597;DHT22;5854;48.072;16.286;2023-07-20T03:29:34;25.20;41.10
11597;DHT22;5854;48.072;16.286;2023-07-20T03:32:03;25.20;41.20
11597;DHT22;5854;48.072;16.286;2023-07-20T03:34:30;25.30;41.20
11597;DHT22;5854;48.072;16.286;2023-07-20T03:36:58;25.20;40.90
11597;DHT22;5854;48.072;16.286;2023-07-20T03:39:25;25.20;41.30
11597;DHT22;5854;48.072;16.286;2023-07-20T03:41:52;25.30;40.50
11597;DHT22;5854;48.072;16.286;2023-07-20T03:44:19;25.20;40.70
11597;DHT22;5854;48.072;16.286;2023-07-20T03:46:46;25.10;41.50
11597;DHT22;5854;48.072;16.286;2023-07-20T03:49:14;25.20;41.80
11597;DHT22;5854;48.072;16.286;2023-07-20T03:51:41;25.10;41.40
11597;DHT22;5854;48.072;16.286;2023-07-20T03:54:08;25.10;41.30
11597;DHT22;5854;48.072;16.286;2023-07-20T03:56:35;25.30;41.50
11597;DHT22;5854;48.072;16.286;2023-07-20T03:59:02;25.20;40.80
11597;DHT22;5854;48.072;16.286;2023-07-20T04:01:29;25.10;41.90
11597;DHT22;5854;48.072;16.286;2023-07-20T04:04:06;25.00;41.90
11597;DHT22;5854;48.072;16.286;2023-07-20T04:06:35;25.10;41.70
11597;DHT22;5854;48.072;16.286;2023-07-20T04:09:03;25.10;42.40
11597;DHT22;5854;48.072;16.286;2023-07-20T04:11:31;25.30;41.20
11597;DHT22;5854;48.072;16.286;2023-07-20T04:13:58;25.20;41.50
11597;DHT22;5854;48.072;16.286;2023-07-20T04:16:25;25.20;41.70
11597;DHT22;5854;48.072;16.286;2023-07-20T04:18:55;25.10;41.70
11597;DHT22;5854;48.072;16.286;2023-07-20T04:21:22;25.10;41.80
11597;DHT22;5854;48.072;16.286;2023-07-20T04:23:51;25.00;42.10
11597;DHT22;5854;48.072;16.286;2023-07-20T04:26:18;25.00;42.10
11597;DHT22;5854;48.072;16.286;2023-07-20T04:28:45;25.00;41.90
11597;DHT22;5854;48.072;16.286;2023-07-20T04:31:13;25.00;42.10
11597;DHT22;5854;48.072;16.286;2023-07-20T04:33:42;25.00;41.80
11597;DHT22;5854;48.072;16.286;2023-07-20T04:36:09;25.00;42.30
11597;DHT22;5854;48.072;16.286;2023-07-20T04:38:36;24.90;42.30
11597;DHT22;5854;48.072;16.286;2023-07-20T04:41:04;25.00;42.10
11597;DHT22;5854;48.072;16.286;2023-07-20T04:43:31;25.10;42.10
11597;DHT22;5854;48.072;16.286;2023-07-20T04:45:59;25.10;42.50
11597;DHT22;5854;48.072;16.286;2023-07-20T04:48:26;25.00;42.30
11597;DHT22;5854;48.072;16.286;2023-07-20T04:50:53;25.00;42.70
11597;DHT22;5854;48.072;16.286;2023-07-20T04:53:21;25.00;42.30
11597;DHT22;5854;48.072;16.286;2023-07-20T04:55:49;25.10;42.00
11597;DHT22;5854;48.072;16.286;2023-07-20T04:58:19;25.20;41.70
11597;DHT22;5854;48.072;16.286;2023-07-20T05:00:47;25.30;41.60
11597;DHT22;5854;48.072;16.286;2023-07-20T05:03:14;25.30;41.60
11597;DHT22;5854;48.072;16.286;2023-07-20T05:05:41;25.20;42.90
11597;DHT22;5854;48.072;16.286;2023-07-20T05:08:08;25.10;42.00
11597;DHT22;5854;48.072;16.286;2023-07-20T05:10:35;25.10;42.20
11597;DHT22;5854;48.072;16.286;2023-07-20T05:13:02;24.90;42.50
11597;DHT22;5854;48.072;16.286;2023-07-20T05:15:32;25.00;42.10
11597;DHT22;5854;48.072;16.286;2023-07-20T05:18:00;25.00;42.30
11597;DHT22;5854;48.072;16.286;2023-07-20T05:20:27;25.10;42.10
11597;DHT22;5854;48.072;16.286;2023-07-20T05:22:54;25.10;41.80
11597;DHT22;5854;48.072;16.286;2023-07-20T05:25:21;24.90;42.30
11597;DHT22;5854;48.072;16.286;2023-07-20T05:27:48;25.00;42.00
11597;DHT22;5854;48.072;16.286;2023-07-20T05:30:16;25.00;42.10
11597;DHT22;5854;48.072;16.286;2023-07-20T05:32:45;25.00;41.90
11597;DHT22;5854;48.072;16.286;2023-07-20T05:35:16;25.10;41.70
11597;DHT22;5854;48.072;16.286;2023-07-20T05:37:43;24.90;42.20
11597;DHT22;5854;48.072;16.286;2023-07-20T05:40:11;25.00;41.90
11597;DHT22;5854;48.072;16.286;2023-07-20T05:42:40;25.10;41.80
11597;DHT22;5854;48.072;16.286;2023-07-20T05:45:07;25.10;42.00
11597;DHT22;5854;48.072;16.286;2023-07-20T05:47:35;25.20;41.70
11597;DHT22;5854;48.072;16.286;2023-07-20T05:50:04;25.20;41.60
11597;DHT22;5854;48.072;16.286;2023-07-20T05:52:32;25.20;42.30
11597;DHT22;5854;48.072;16.286;2023-07-20T05:54:59;25.00;41.80
11597;DHT22;5854;48.072;16.286;2023-07-20T05:57:26;24.90;42.40
11597;DHT22;5854;48.072;16.286;2023-07-20T05:59:53;25.00;42.30
11597;DHT22;5854;48.072;16.286;2023-07-20T06:02:20;24.90;42.40
11597;DHT22;5854;48.072;16.286;2023-07-20T06:04:47;24.80;42.80
11597;DHT22;5854;48.072;16.286;2023-07-20T06:07:16;24.90;42.90
11597;DHT22;5854;48.072;16.286;2023-07-20T06:09:44;25.10;42.80
11597;DHT22;5854;48.072;16.286;2023-07-20T06:12:11;25.20;42.60
11597;DHT22;5854;48.072;16.286;2023-07-20T06:14:38;25.40;41.60
11597;DHT22;5854;48.072;16.286;2023-07-20T06:17:05;25.30;41.70
11597;DHT22;5854;48.072;16.286;2023-07-20T06:19:32;25.70;40.80
11597;DHT22;5854;48.072;16.286;2023-07-20T06:21:59;26.40;39.70
11597;DHT22;5854;48.072;16.286;2023-07-20T06:24:27;26.10;40.50
11597;DHT22;5854;48.072;16.286;2023-07-20T06:27:05;25.90;39.90
11597;DHT22;5854;48.072;16.286;2023-07-20T06:29:38;25.70;40.50
11597;DHT22;5854;48.072;16.286;2023-07-20T06:32:06;25.80;41.90
11597;DHT22;5854;48.072;16.286;2023-07-20T06:34:34;25.70;42.20
11597;DHT22;5854;48.072;16.286;2023-07-20T06:37:04;25.40;42.30
11597;DHT22;5854;48.072;16.286;2023-07-20T06:39:32;25.40;42.20
11597;DHT22;5854;48.072;16.286;2023-07-20T06:42:00;25.90;41.00
11597;DHT22;5854;48.072;16.286;2023-07-20T06:44:27;26.70;39.20
11597;DHT22;5854;48.072;16.286;2023-07-20T06:46:54;26.90;38.30
11597;DHT22;5854;48.072;16.286;2023-07-20T06:49:24;27.00;38.70
11597;DHT22;5854;48.072;16.286;2023-07-20T06:51:52;27.30;38.80
11597;DHT22;5854;48.072;16.286;2023-07-20T06:54:19;27.50;37.40
11597;DHT22;5854;48.072;16.286;2023-07-20T06:56:48;28.00;36.90
11597;DHT22;5854;48.072;16.286;2023-07-20T06:59:15;27.70;36.80
11597;DHT22;5854;48.072;16.286;2023-07-20T07:01:42;28.20;36.90
11597;DHT22;5854;48.072;16.286;2023-07-20T07:04:09;28.40;35.90
11597;DHT22;5854;48.072;16.286;2023-07-20T07:06:36;28.40;36.00
11597;DHT22;5854;48.072;16.286;2023-07-20T07:09:04;28.50;36.00
11597;DHT22;5854;48.072;16.286;2023-07-20T07:11:31;28.20;36.20
11597;DHT22;5854;48.072;16.286;2023-07-20T07:14:02;27.90;36.60
11597;DHT22;5854;48.072;16.286;2023-07-20T07:16:32;27.00;38.30
11597;DHT22;5854;48.072;16.286;2023-07-20T07:18:59;27.40;38.60
11597;DHT22;5854;48.072;16.286;2023-07-20T07:21:26;28.40;36.50
11597;DHT22;5854;48.072;16.286;2023-07-20T07:23:55;28.90;35.20
11597;DHT22;5854;48.072;16.286;2023-07-20T07:26:23;29.40;34.30
11597;DHT22;5854;48.072;16.286;2023-07-20T07:28:51;29.10;34.20
11597;DHT22;5854;48.072;16.286;2023-07-20T07:31:20;29.00;35.10
11597;DHT22;5854;48.072;16.286;2023-07-20T07:33:48;29.30;34.60
11597;DHT22;5854;48.072;16.286;2023-07-20T07:36:17;29.80;33.60
11597;DHT22;5854;48.072;16.286;2023-07-20T07:38:45;30.60;32.50
11597;DHT22;5854;48.072;16.286;2023-07-20T07:41:12;30.70;32.20
11597;DHT22;5854;48.072;16.286;2023-07-20T07:43:39;29.70;33.10
11597;DHT22;5854;48.072;16.286;2023-07-20T07:46:06;29.90;33.10
11597;DHT22;5854;48.072;16.286;2023-07-20T07:48:35;30.10;33.00
11597;DHT22;5854;48.072;16.286;2023-07-20T07:51:02;30.30;32.80
11597;DHT22;5854;48.072;16.286;2023-07-20T07:53:29;30.40;32.10
11597;DHT22;5854;48.072;16.286;2023-07-20T07:55:57;30.40;32.60
11597;DHT22;5854;48.072;16.286;2023-07-20T07:58:25;30.00;33.30
11597;DHT22;5854;48.072;16.286;2023-07-20T08:00:52;30.20;32.30
11597;DHT22;5854;48.072;16.286;2023-07-20T08:03:19;29.90;32.70
11597;DHT22;5854;48.072;16.286;2023-07-20T08:05:48;29.50;33.30
11597;DHT22;5854;48.072;16.286;2023-07-20T08:08:15;28.20;35.80
11597;DHT22;5854;48.072;16.286;2023-07-20T08:13:14;27.40;38.30
11597;DHT22;5854;48.072;16.286;2023-07-20T08:15:49;27.20;37.60
11597;DHT22;5854;48.072;16.286;2023-07-20T08:18:17;27.00;37.90
11597;DHT22;5854;48.072;16.286;2023-07-20T08:20:45;26.90;37.60
11597;DHT22;5854;48.072;16.286;2023-07-20T08:23:15;26.70;38.00
11597;DHT22;5854;48.072;16.286;2023-07-20T08:25:43;27.10;38.10
11597;DHT22;5854;48.072;16.286;2023-07-20T08:28:10;27.10;37.10
11597;DHT22;5854;48.072;16.286;2023-07-20T08:30:42;26.90;37.00
11597;DHT22;5854;48.072;16.286;2023-07-20T08:33:12;26.80;37.30
11597;DHT22;5854;48.072;16.286;2023-07-20T08:35:46;26.80;37.40
11597;DHT22;5854;48.072;16.286;2023-07-20T08:38:15;26.80;36.40
11597;DHT22;5854;48.072;16.286;2023-07-20T08:40:44;26.90;37.10
11597;DHT22;5854;48.072;16.286;2023-07-20T08:43:14;26.90;36.10
11597;DHT22;5854;48.072;16.286;2023-07-20T08:45:44;27.00;36.90
11597;DHT22;5854;48.072;16.286;2023-07-20T08:48:12;26.70;36.70
11597;DHT22;5854;48.072;16.286;2023-07-20T08:50:39;26.90;36.60
11597;DHT22;5854;48.072;16.286;2023-07-20T08:53:07;26.90;36.20
11597;DHT22;5854;48.072;16.286;2023-07-20T08:55:37;27.00;36.60
11597;DHT22;5854;48.072;16.286;2023-07-20T08:58:06;27.20;36.10
11597;DHT22;5854;48.072;16.286;2023-07-20T09:00:38;27.30;36.50
11597;DHT22;5854;48.072;16.286;2023-07-20T09:03:06;27.20;37.30
11597;DHT22;5854;48.072;16.286;2023-07-20T09:05:34;27.20;36.20
11597;DHT22;5854;48.072;16.286;2023-07-20T09:08:02;27.10;35.50
11597;DHT22;5854;48.072;16.286;2023-07-20T09:10:30;27.00;35.50
11597;DHT22;5854;48.072;16.286;2023-07-20T09:13:07;27.00;35.30
11597;DHT22;5854;48.072;16.286;2023-07-20T09:18:26;27.10;34.90
11597;DHT22;5854;48.072;16.286;2023-07-20T09:23:38;27.00;34.20
11597;DHT22;5854;48.072;16.286;2023-07-20T09:26:10;27.10;35.10
11597;DHT22;5854;48.072;16.286;2023-07-20T09:28:48;27.30;35.40
11597;DHT22;5854;48.072;16.286;2023-07-20T09:31:17;27.60;34.30
11597;DHT22;5854;48.072;16.286;2023-07-20T09:33:44;27.70;33.40
11597;DHT22;5854;48.072;16.286;2023-07-20T09:36:12;27.60;33.10
11597;DHT22;5854;48.072;16.286;2023-07-20T09:38:41;27.70;33.60
11597;DHT22;5854;48.072;16.286;2023-07-20T09:41:13;27.80;33.30
11597;DHT22;5854;48.072;16.286;2023-07-20T09:43:45;27.70;33.60
11597;DHT22;5854;48.072;16.286;2023-07-20T09:59:12;27.70;32.10
11597;DHT22;5854;48.072;16.286;2023-07-20T10:04:19;28.10;33.10
11597;DHT22;5854;48.072;16.286;2023-07-20T10:06:52;28.20;33.90
11597;DHT22;5854;48.072;16.286;2023-07-20T10:14:36;28.20;34.10
11597;DHT22;5854;48.072;16.286;2023-07-20T10:43:03;28.10;33.60
11597;DHT22;5854;48.072;16.286;2023-07-20T10:45:39;28.20;32.70
11597;DHT22;5854;48.072;16.286;2023-07-20T10:50:36;28.70;31.60
11597;DHT22;5854;48.072;16.286;2023-07-20T10:53:28;29.00;32.10
11597;DHT22;5854;48.072;16.286;2023-07-20T10:56:06;29.00;31.80
11597;DHT22;5854;48.072;16.286;2023-07-20T10:58:37;29.30;31.80
11597;DHT22;5854;48.072;16.286;2023-07-20T11:01:04;29.40;31.80
11597;DHT22;5854;48.072;16.286;2023-07-20T11:03:33;29.40;31.50
11597;DHT22;5854;48.072;16.286;2023-07-20T11:06:31;29.60;31.00
11597;DHT22;5854;48.072;16.286;2023-07-20T11:09:07;29.70;30.40
11597;DHT22;5854;48.072;16.286;2023-07-20T11:11:40;29.60;31.80
11597;DHT22;5854;48.072;16.286;2023-07-20T11:14:20;29.70;31.70
11597;DHT22;5854;48.072;16.286;2023-07-20T11:16:49;29.80;31.70
11597;DHT22;5854;48.072;16.286;2023-07-20T11:19:18;29.80;31.50
11597;DHT22;5854;48.072;16.286;2023-07-20T11:21:47;29.90;33.20
11597;DHT22;5854;48.072;16.286;2023-07-20T11:24:17;29.80;31.90
11597;DHT22;5854;48.072;16.286;2023-07-20T11:26:46;29.70;31.60
11597;DHT22;5854;48.072;16.286;2023-07-20T11:29:16;29.70;30.50
11597;DHT22;5854;48.072;16.286;2023-07-20T11:31:44;29.60;32.00
11597;DHT22;5854;48.072;16.286;2023-07-20T11:34:15;29.70;32.40
11597;DHT22;5854;48.072;16.286;2023-07-20T11:36:50;29.70;32.00
11597;DHT22;5854;48.072;16.286;2023-07-20T11:39:19;29.70;31.70
11597;DHT22;5854;48.072;16.286;2023-07-20T11:41:49;29.20;30.40
11597;DHT22;5854;48.072;16.286;2023-07-20T11:44:19;29.00;31.40
11597;DHT22;5854;48.072;16.286;2023-07-20T11:47:00;28.90;30.10
11597;DHT22;5854;48.072;16.286;2023-07-20T11:49:29;28.80;30.10
11597;DHT22;5854;48.072;16.286;2023-07-20T11:51:57;28.70;30.30
11597;DHT22;5854;48.072;16.286;2023-07-20T11:54:25;28.60;30.60
11597;DHT22;5854;48.072;16.286;2023-07-20T11:56:54;28.70;30.50
11597;DHT22;5854;48.072;16.286;2023-07-20T11:59:23;28.60;30.10
11597;DHT22;5854;48.072;16.286;2023-07-20T12:01:50;28.80;29.80
11597;DHT22;5854;48.072;16.286;2023-07-20T12:04:19;29.00;29.40
11597;DHT22;5854;48.072;16.286;2023-07-20T12:06:49;29.70;28.20
11597;DHT22;5854;48.072;16.286;2023-07-20T12:09:17;30.30;27.20
11597;DHT22;5854;48.072;16.286;2023-07-20T12:11:44;30.90;26.10
11597;DHT22;5854;48.072;16.286;2023-07-20T12:14:11;31.40;25.70
11597;DHT22;5854;48.072;16.286;2023-07-20T12:16:40;31.50;25.70
11597;DHT22;5854;48.072;16.286;2023-07-20T12:19:09;30.90;25.70
11597;DHT22;5854;48.072;16.286;2023-07-20T12:21:39;31.30;26.30
11597;DHT22;5854;48.072;16.286;2023-07-20T12:26:39;31.30;25.20
11597;DHT22;5854;48.072;16.286;2023-07-20T12:29:06;30.90;25.40
11597;DHT22;5854;48.072;16.286;2023-07-20T12:31:36;31.00;25.30
11597;DHT22;5854;48.072;16.286;2023-07-20T12:34:05;30.80;25.20
11597;DHT22;5854;48.072;16.286;2023-07-20T12:36:34;31.70;24.80
11597;DHT22;5854;48.072;16.286;2023-07-20T12:39:02;31.40;24.30
11597;DHT22;5854;48.072;16.286;2023-07-20T12:43:58;31.50;24.10
11597;DHT22;5854;48.072;16.286;2023-07-20T12:46:26;31.90;23.60
11597;DHT22;5854;48.072;16.286;2023-07-20T12:48:55;31.30;23.90
11597;DHT22;5854;48.072;16.286;2023-07-20T12:51:23;31.20;24.40
11597;DHT22;5854;48.072;16.286;2023-07-20T12:53:51;31.30;24.30
11597;DHT22;5854;48.072;16.286;2023-07-20T12:56:21;31.30;25.40
11597;DHT22;5854;48.072;16.286;2023-07-20T12:58:48;31.50;24.40
11597;DHT22;5854;48.072;16.286;2023-07-20T13:01:15;32.40;23.40
11597;DHT22;5854;48.072;16.286;2023-07-20T13:03:42;32.50;22.90
11597;DHT22;5854;48.072;16.286;2023-07-20T13:06:09;33.10;22.70
11597;DHT22;5854;48.072;16.286;2023-07-20T13:08:38;33.30;22.80
11597;DHT22;5854;48.072;16.286;2023-07-20T13:11:05;33.30;22.50
11597;DHT22;5854;48.072;16.286;2023-07-20T13:13:32;33.10;22.80
11597;DHT22;5854;48.072;16.286;2023-07-20T13:15:59;32.80;23.10
11597;DHT22;5854;48.072;16.286;2023-07-20T13:18:27;32.60;23.40
11597;DHT22;5854;48.072;16.286;2023-07-20T13:20:54;32.20;23.90
11597;DHT22;5854;48.072;16.286;2023-07-20T13:23:22;31.80;24.40
11597;DHT22;5854;48.072;16.286;2023-07-20T13:25:50;31.40;25.30
11597;DHT22;5854;48.072;16.286;2023-07-20T13:28:17;31.30;26.20
11597;DHT22;5854;48.072;16.286;2023-07-20T13:33:20;31.00;26.80
11597;DHT22;5854;48.072;16.286;2023-07-20T13:35:51;30.90;27.00
11597;DHT22;5854;48.072;16.286;2023-07-20T13:43:41;30.80;27.00
11597;DHT22;5854;48.072;16.286;2023-07-20T13:51:28;30.80;27.60
11597;DHT22;5854;48.072;16.286;2023-07-20T13:53:57;30.70;25.90
11597;DHT22;5854;48.072;16.286;2023-07-20T14:04:17;30.70;28.20
11597;DHT22;5854;48.072;16.286;2023-07-20T14:06:44;30.80;26.80
11597;DHT22;5854;48.072;16.286;2023-07-20T14:09:13;30.80;27.80
11597;DHT22;5854;48.072;16.286;2023-07-20T14:11:41;30.80;26.80
11597;DHT22;5854;48.072;16.286;2023-07-20T14:14:10;31.00;28.30
11597;DHT22;5854;48.072;16.286;2023-07-20T14:16:39;30.80;27.40
11597;DHT22;5854;48.072;16.286;2023-07-20T14:19:06;30.80;28.30
11597;DHT22;5854;48.072;16.286;2023-07-20T14:21:40;30.90;27.20
11597;DHT22;5854;48.072;16.286;2023-07-20T14:24:07;30.90;27.80
11597;DHT22;5854;48.072;16.286;2023-07-20T14:26:35;30.80;24.70
11597;DHT22;5854;48.072;16.286;2023-07-20T14:29:02;30.80;28.10
11597;DHT22;5854;48.072;16.286;2023-07-20T14:31:29;30.70;28.30
11597;DHT22;5854;48.072;16.286;2023-07-20T14:33:57;31.00;28.60
11597;DHT22;5854;48.072;16.286;2023-07-20T14:39:15;31.30;26.40
11597;DHT22;5854;48.072;16.286;2023-07-20T14:41:46;31.20;27.90
11597;DHT22;5854;48.072;16.286;2023-07-20T14:44:13;30.90;27.00
11597;DHT22;5854;48.072;16.286;2023-07-20T14:46:40;30.60;27.30
11597;DHT22;5854;48.072;16.286;2023-07-20T14:49:07;30.80;26.80
11597;DHT22;5854;48.072;16.286;2023-07-20T14:51:35;30.80;29.30
11597;DHT22;5854;48.072;16.286;2023-07-20T14:54:08;31.10;29.00
11597;DHT22;5854;48.072;16.286;2023-07-20T14:56:38;31.30;28.50
11597;DHT22;5854;48.072;16.286;2023-07-20T14:59:05;31.40;26.80
11597;DHT22;5854;48.072;16.286;2023-07-20T15:01:32;31.50;27.80
11597;DHT22;5854;48.072;16.286;2023-07-20T15:03:59;31.50;28.00
11597;DHT22;5854;48.072;16.286;2023-07-20T15:06:26;31.50;27.70
11597;DHT22;5854;48.072;16.286;2023-07-20T15:08:55;31.30;28.40
11597;DHT22;5854;48.072;16.286;2023-07-20T15:11:23;31.30;27.60
11597;DHT22;5854;48.072;16.286;2023-07-20T15:13:55;31.00;28.50
11597;DHT22;5854;48.072;16.286;2023-07-20T15:16:24;31.40;29.00
11597;DHT22;5854;48.072;16.286;2023-07-20T15:18:51;31.50;28.70
11597;DHT22;5854;48.072;16.286;2023-07-20T15:21:18;31.50;29.10
11597;DHT22;5854;48.072;16.286;2023-07-20T15:23:45;31.30;26.90
11597;DHT22;5854;48.072;16.286;2023-07-20T15:26:12;31.50;26.70
11597;DHT22;5854;48.072;16.286;2023-07-20T15:28:40;31.50;26.50
11597;DHT22;5854;48.072;16.286;2023-07-20T15:31:09;31.40;27.20
11597;DHT22;5854;48.072;16.286;2023-07-20T15:33:36;31.40;26.30
11597;DHT22;5854;48.072;16.286;2023-07-20T15:36:03;31.50;26.40
11597;DHT22;5854;48.072;16.286;2023-07-20T15:38:32;31.40;27.40
11597;DHT22;5854;48.072;16.286;2023-07-20T15:40:59;31.50;27.70
11597;DHT22;5854;48.072;16.286;2023-07-20T15:43:26;31.20;24.90
11597;DHT22;5854;48.072;16.286;2023-07-20T15:46:01;31.20;25.60
11597;DHT22;5854;48.072;16.286;2023-07-20T15:48:30;31.40;27.80
11597;DHT22;5854;48.072;16.286;2023-07-20T15:50:57;31.50;28.00
11597;DHT22;5854;48.072;16.286;2023-07-20T15:53:24;31.40;28.80
11597;DHT22;5854;48.072;16.286;2023-07-20T15:55:54;31.30;27.50
11597;DHT22;5854;48.072;16.286;2023-07-20T15:58:21;31.20;26.90
11597;DHT22;5854;48.072;16.286;2023-07-20T16:00:53;31.20;26.90
11597;DHT22;5854;48.072;16.286;2023-07-20T16:03:21;31.20;27.50
11597;DHT22;5854;48.072;16.286;2023-07-20T16:05:51;31.30;28.70
11597;DHT22;5854;48.072;16.286;2023-07-20T16:08:18;31.50;28.80
11597;DHT22;5854;48.072;16.286;2023-07-20T16:10:45;31.40;24.70
11597;DHT22;5854;48.072;16.286;2023-07-20T16:13:13;31.40;27.90
11597;DHT22;5854;48.072;16.286;2023-07-20T16:15:40;31.60;28.30
11597;DHT22;5854;48.072;16.286;2023-07-20T16:18:07;31.40;28.80
11597;DHT22;5854;48.072;16.286;2023-07-20T16:20:34;31.40;28.50
11597;DHT22;5854;48.072;16.286;2023-07-20T16:23:02;31.30;28.40
11597;DHT22;5854;48.072;16.286;2023-07-20T16:25:31;31.60;27.10
11597;DHT22;5854;48.072;16.286;2023-07-20T16:27:58;31.60;27.40
11597;DHT22;5854;48.072;16.286;2023-07-20T16:30:27;31.70;27.70
11597;DHT22;5854;48.072;16.286;2023-07-20T16:32:54;31.50;27.80
11597;DHT22;5854;48.072;16.286;2023-07-20T16:35:22;31.50;26.90
11597;DHT22;5854;48.072;16.286;2023-07-20T16:37:49;31.60;26.30
11597;DHT22;5854;48.072;16.286;2023-07-20T16:40:18;31.70;26.00
11597;DHT22;5854;48.072;16.286;2023-07-20T16:42:45;31.70;24.50
11597;DHT22;5854;48.072;16.286;2023-07-20T16:45:12;31.70;25.30
11597;DHT22;5854;48.072;16.286;2023-07-20T16:47:39;31.70;26.80
11597;DHT22;5854;48.072;16.286;2023-07-20T16:50:07;31.90;26.10
11597;DHT22;5854;48.072;16.286;2023-07-20T16:52:35;32.00;26.00
11597;DHT22;5854;48.072;16.286;2023-07-20T16:55:02;32.30;26.50
11597;DHT22;5854;48.072;16.286;2023-07-20T16:57:32;32.30;24.90
11597;DHT22;5854;48.072;16.286;2023-07-20T16:59:59;32.30;26.90
11597;DHT22;5854;48.072;16.286;2023-07-20T17:02:26;32.30;26.60
11597;DHT22;5854;48.072;16.286;2023-07-20T17:04:53;32.20;27.70